Sacramento, CA (94282)

4:29 PM PDT on August 24, 2016 (GMT -0700)
Mansion Flats | | Change Station

Elev 24 ft 38.58 °N, 121.48 °W | Updated 20 seconds ago

Clear
Clear
84.4 °F
Feels Like 84 °F
N
3.8
Wind Variable Wind from SE
Gusts 6.5 mph

Today
High -- | Low -- °F
--% Chance of Precip.
Yesterday
High -- | Low -- °F
Precip. -- in
Pressure 29.94 in
Visibility 10.0 miles
Clouds Clear
Heat Index 84 °F
Dew Point 59 °F
Humidity 42%
Rainfall 0.00 in
Snow Depth Not available.
6:28 AM 7:46 PM
Waning Gibbous, 52% visible
METAR KSAC 242253Z AUTO 21008KT 10SM CLR 31/11 A2994 RMK AO2 SLP137 T03060106 TSNO
Pressure 29.94 in
Visibility 10.0 miles
Clouds Clear
Heat Index 84 °F
Dew Point 59 °F
Humidity 42%
Rainfall 0.00 in
Snow Depth Not available.
6:28 AM 7:46 PM
Waning Gibbous, 52% visible
METAR KSAC 242253Z AUTO 21008KT 10SM CLR 31/11 A2994 RMK AO2 SLP137 T03060106 TSNO

10-Day Weather Forecast

Almanac

Astronomy

Aug. 24, 2016 Rise Set
Actual Time
Civil Twilight
Nautical Twilight
Astronomical Twilight
Moon
Length of Visible Light
Length of Day
Tomorrow will be .
, % of the Moon is Illuminated

Today's Extremes

State Highs State Lows

Community

WunderPhotos

Upload Photos

1,934,731 photos uploaded!

WunderBlog® & News

Nearby

Air Quality

  Air Quality AQ Index Pollutant
Not available.

Snow Depth

Station Depth Elevation

Earthquake Activity

City Distance Mag. Time & Date
Minimum magnitude displayed is 2.5.

Coastal Water Temperatures

Place Temperature

Stations

Nearby Weather Stations

Station Location Temp. Windchill Dew Point Humidity Wind Precip. Elev Updated Type
                   

Watches & Warnings

There are currently no watches in effect.